sensor_id;sensor_type;location;lat;lon;timestamp;noise_LAeq;noise_LA_min;noise_LA_max;noise_LA01;noise_LA95
43512;Laerm;34054;52.100;5.116;2024-03-23T00:53:06;37.26;33.00;43.62;;
43512;Laerm;34054;52.100;5.116;2024-03-23T00:53:38;37.15;32.77;43.10;;
43512;Laerm;34054;52.100;5.116;2024-03-23T00:54:09;37.19;32.66;42.17;;
43512;Laerm;34054;52.100;5.116;2024-03-23T00:54:41;37.12;32.51;43.25;;
43512;Laerm;34054;52.100;5.116;2024-03-23T00:55:12;36.94;32.66;43.27;;
43512;Laerm;34054;52.100;5.116;2024-03-23T00:55:44;36.89;32.73;43.32;;
43512;Laerm;34054;52.100;5.116;2024-03-23T00:56:15;36.89;32.12;43.17;;
43512;Laerm;34054;52.100;5.116;2024-03-23T00:56:48;36.72;32.05;43.37;;
43512;Laerm;34054;52.100;5.116;2024-03-23T00:57:19;36.77;32.58;43.44;;
43512;Laerm;34054;52.100;5.116;2024-03-23T00:57:51;36.78;32.76;41.77;;
43512;Laerm;34054;52.100;5.116;2024-03-23T00:58:23;36.73;32.34;43.09;;
43512;Laerm;34054;52.100;5.116;2024-03-23T00:58:54;36.75;32.73;42.52;;
43512;Laerm;34054;52.100;5.116;2024-03-23T00:59:26;36.91;32.33;43.48;;
43512;Laerm;34054;52.100;5.116;2024-03-23T00:59:59;36.80;32.32;44.10;;
43512;Laerm;34054;52.100;5.116;2024-03-23T01:00:31;37.04;32.27;42.47;;
43512;Laerm;34054;52.100;5.116;2024-03-23T01:01:03;36.65;32.25;41.97;;
43512;Laerm;34054;52.100;5.116;2024-03-23T01:01:34;36.74;32.46;42.69;;
43512;Laerm;34054;52.100;5.116;2024-03-23T01:02:06;36.58;32.29;42.09;;
43512;Laerm;34054;52.100;5.116;2024-03-23T01:02:37;36.61;31.98;42.19;;
43512;Laerm;34054;52.100;5.116;2024-03-23T01:03:09;36.59;32.53;42.72;;
43512;Laerm;34054;52.100;5.116;2024-03-23T01:03:42;36.48;31.87;42.25;;
43512;Laerm;34054;52.100;5.116;2024-03-23T01:04:13;36.46;32.33;42.44;;
43512;Laerm;34054;52.100;5.116;2024-03-23T01:04:45;36.51;32.43;41.92;;
43512;Laerm;34054;52.100;5.116;2024-03-23T01:05:16;36.68;31.86;41.76;;
43512;Laerm;34054;52.100;5.116;2024-03-23T01:05:48;36.44;32.06;42.58;;
43512;Laerm;34054;52.100;5.116;2024-03-23T01:06:20;36.65;32.45;42.88;;
43512;Laerm;34054;52.100;5.116;2024-03-23T01:06:51;36.61;32.12;41.23;;
43512;Laerm;34054;52.100;5.116;2024-03-23T01:07:24;36.98;32.51;42.43;;
43512;Laerm;34054;52.100;5.116;2024-03-23T01:07:55;36.74;31.91;43.12;;
43512;Laerm;34054;52.100;5.116;2024-03-23T01:08:28;36.74;32.13;42.93;;
43512;Laerm;34054;52.100;5.116;2024-03-23T01:09:00;36.73;31.60;42.06;;
43512;Laerm;34054;52.100;5.116;2024-03-23T01:09:31;36.58;32.36;42.34;;
43512;Laerm;34054;52.100;5.116;2024-03-23T01:10:04;36.70;32.32;41.81;;
43512;Laerm;34054;52.100;5.116;2024-03-23T01:10:36;36.76;32.68;41.59;;
43512;Laerm;34054;52.100;5.116;2024-03-23T01:11:08;36.64;32.46;41.37;;
43512;Laerm;34054;52.100;5.116;2024-03-23T01:11:40;36.55;32.36;42.36;;
43512;Laerm;34054;52.100;5.116;2024-03-23T01:12:12;36.55;32.13;42.13;;
43512;Laerm;34054;52.100;5.116;2024-03-23T01:12:43;36.72;32.52;41.17;;
43512;Laerm;34054;52.100;5.116;2024-03-23T01:13:15;36.65;32.01;42.47;;
43512;Laerm;34054;52.100;5.116;2024-03-23T01:13:46;36.53;32.22;42.34;;
43512;Laerm;34054;52.100;5.116;2024-03-23T01:14:18;36.73;32.42;41.80;;
43512;Laerm;34054;52.100;5.116;2024-03-23T01:14:50;36.61;32.18;43.62;;
43512;Laerm;34054;52.100;5.116;2024-03-23T01:15:22;36.55;32.39;40.95;;
43512;Laerm;34054;52.100;5.116;2024-03-23T01:15:55;36.86;32.30;41.73;;
43512;Laerm;34054;52.100;5.116;2024-03-23T01:16:27;36.81;32.52;42.46;;
43512;Laerm;34054;52.100;5.116;2024-03-23T01:16:58;36.68;32.24;41.57;;
43512;Laerm;34054;52.100;5.116;2024-03-23T01:17:30;36.72;32.50;43.21;;
43512;Laerm;34054;52.100;5.116;2024-03-23T01:18:02;36.80;32.34;42.64;;
43512;Laerm;34054;52.100;5.116;2024-03-23T01:18:34;36.68;32.38;41.82;;
43512;Laerm;34054;52.100;5.116;2024-03-23T01:19:06;36.87;32.33;42.36;;
43512;Laerm;34054;52.100;5.116;2024-03-23T01:19:38;36.81;32.20;42.21;;
43512;Laerm;34054;52.100;5.116;2024-03-23T01:20:11;36.72;32.16;42.30;;
43512;Laerm;34054;52.100;5.116;2024-03-23T01:20:42;36.76;31.99;43.22;;
43512;Laerm;34054;52.100;5.116;2024-03-23T01:21:14;36.61;32.26;41.92;;
43512;Laerm;34054;52.100;5.116;2024-03-23T01:21:45;36.71;32.13;42.73;;
43512;Laerm;34054;52.100;5.116;2024-03-23T01:22:18;36.78;32.02;41.23;;
43512;Laerm;34054;52.100;5.116;2024-03-23T01:22:49;36.73;32.45;42.70;;
43512;Laerm;34054;52.100;5.116;2024-03-23T01:23:21;36.62;32.12;41.91;;
43512;Laerm;34054;52.100;5.116;2024-03-23T01:23:54;36.73;32.28;43.37;;
43512;Laerm;34054;52.100;5.116;2024-03-23T01:24:26;36.88;32.76;42.56;;
43512;Laerm;34054;52.100;5.116;2024-03-23T01:24:57;36.53;32.20;41.73;;
43512;Laerm;34054;52.100;5.116;2024-03-23T01:25:30;36.63;31.95;42.36;;
43512;Laerm;34054;52.100;5.116;2024-03-23T01:26:01;36.64;32.82;43.13;;
43512;Laerm;34054;52.100;5.116;2024-03-23T01:26:33;38.09;32.35;51.98;;
43512;Laerm;34054;52.100;5.116;2024-03-23T01:27:05;36.98;32.46;41.91;;
43512;Laerm;34054;52.100;5.116;2024-03-23T01:27:36;36.84;32.51;42.74;;
43512;Laerm;34054;52.100;5.116;2024-03-23T01:28:08;36.76;32.27;42.69;;
43512;Laerm;34054;52.100;5.116;2024-03-23T01:28:40;36.63;31.84;43.25;;
43512;Laerm;34054;52.100;5.116;2024-03-23T01:29:13;36.93;32.44;42.93;;
43512;Laerm;34054;52.100;5.116;2024-03-23T01:29:44;36.71;32.11;41.94;;
43512;Laerm;34054;52.100;5.116;2024-03-23T01:30:16;36.73;32.16;41.93;;
43512;Laerm;34054;52.100;5.116;2024-03-23T01:30:48;36.73;32.58;41.61;;
43512;Laerm;34054;52.100;5.116;2024-03-23T01:31:19;36.76;32.26;43.46;;
43512;Laerm;34054;52.100;5.116;2024-03-23T01:31:51;36.75;32.51;42.38;;
43512;Laerm;34054;52.100;5.116;2024-03-23T01:32:22;36.88;32.13;42.71;;
43512;Laerm;34054;52.100;5.116;2024-03-23T01:32:54;36.95;32.32;41.15;;
43512;Laerm;34054;52.100;5.116;2024-03-23T01:33:27;36.88;32.36;43.10;;
43512;Laerm;34054;52.100;5.116;2024-03-23T01:33:58;36.91;32.47;41.79;;
43512;Laerm;34054;52.100;5.116;2024-03-23T01:34:30;36.91;32.20;43.39;;
43512;Laerm;34054;52.100;5.116;2024-03-23T01:35:01;36.76;32.12;43.18;;
43512;Laerm;34054;52.100;5.116;2024-03-23T01:35:33;36.95;32.32;42.65;;
43512;Laerm;34054;52.100;5.116;2024-03-23T01:36:05;36.91;32.01;42.80;;
43512;Laerm;34054;52.100;5.116;2024-03-23T01:36:36;36.70;32.31;41.83;;
43512;Laerm;34054;52.100;5.116;2024-03-23T01:37:09;36.98;32.81;41.87;;
43512;Laerm;34054;52.100;5.116;2024-03-23T01:37:40;36.84;32.57;42.16;;
43512;Laerm;34054;52.100;5.116;2024-03-23T01:38:12;36.91;32.09;42.35;;
43512;Laerm;34054;52.100;5.116;2024-03-23T01:38:43;36.83;31.80;43.22;;
43512;Laerm;34054;52.100;5.116;2024-03-23T01:39:16;36.97;32.45;42.78;;
43512;Laerm;34054;52.100;5.116;2024-03-23T01:39:48;36.90;32.11;42.46;;
43512;Laerm;34054;52.100;5.116;2024-03-23T01:40:20;36.82;32.41;43.47;;
43512;Laerm;34054;52.100;5.116;2024-03-23T01:40:57;36.92;32.31;43.02;;
43512;Laerm;34054;52.100;5.116;2024-03-23T01:41:28;36.88;32.22;42.83;;
43512;Laerm;34054;52.100;5.116;2024-03-23T01:42:00;37.04;32.67;41.85;;
43512;Laerm;34054;52.100;5.116;2024-03-23T01:42:32;36.89;31.95;43.65;;
43512;Laerm;34054;52.100;5.116;2024-03-23T01:43:05;36.98;31.81;42.88;;
43512;Laerm;34054;52.100;5.116;2024-03-23T01:43:39;36.82;32.32;42.51;;
43512;Laerm;34054;52.100;5.116;2024-03-23T01:44:12;37.04;32.35;42.89;;
43512;Laerm;34054;52.100;5.116;2024-03-23T01:44:44;36.83;32.35;42.22;;
43512;Laerm;34054;52.100;5.116;2024-03-23T01:45:15;37.23;32.40;41.78;;
43512;Laerm;34054;52.100;5.116;2024-03-23T01:45:47;38.25;32.68;44.85;;
43512;Laerm;34054;52.100;5.116;2024-03-23T01:46:18;37.25;33.17;42.26;;
43512;Laerm;34054;52.100;5.116;2024-03-23T01:46:50;36.78;32.39;42.05;;
43512;Laerm;34054;52.100;5.116;2024-03-23T01:47:23;36.44;31.59;41.82;;
43512;Laerm;34054;52.100;5.116;2024-03-23T01:47:55;36.61;32.41;41.82;;
43512;Laerm;34054;52.100;5.116;2024-03-23T01:48:26;36.86;31.99;41.54;;
43512;Laerm;34054;52.100;5.116;2024-03-23T01:48:58;36.97;32.29;43.11;;
43512;Laerm;34054;52.100;5.116;2024-03-23T01:49:30;36.74;32.46;43.15;;
43512;Laerm;34054;52.100;5.116;2024-03-23T01:50:03;36.78;31.82;42.70;;
43512;Laerm;34054;52.100;5.116;2024-03-23T01:50:35;36.82;32.32;41.98;;
43512;Laerm;34054;52.100;5.116;2024-03-23T01:51:07;37.89;32.54;42.32;;
43512;Laerm;34054;52.100;5.116;2024-03-23T01:51:39;36.94;32.48;42.51;;
43512;Laerm;34054;52.100;5.116;2024-03-23T01:52:11;36.86;32.16;42.12;;
43512;Laerm;34054;52.100;5.116;2024-03-23T01:52:43;36.86;32.26;43.05;;
43512;Laerm;34054;52.100;5.116;2024-03-23T01:53:15;36.90;32.11;42.35;;
43512;Laerm;34054;52.100;5.116;2024-03-23T01:53:49;36.86;32.23;42.35;;
43512;Laerm;34054;52.100;5.116;2024-03-23T01:54:23;37.08;32.18;43.70;;
43512;Laerm;34054;52.100;5.116;2024-03-23T01:54:55;36.92;31.93;42.94;;
43512;Laerm;34054;52.100;5.116;2024-03-23T01:55:27;36.92;32.60;42.26;;
43512;Laerm;34054;52.100;5.116;2024-03-23T01:56:02;37.09;32.34;41.93;;
43512;Laerm;34054;52.100;5.116;2024-03-23T01:56:34;37.17;32.42;42.77;;
43512;Laerm;34054;52.100;5.116;2024-03-23T01:57:06;36.89;32.59;41.93;;
43512;Laerm;34054;52.100;5.116;2024-03-23T01:57:38;36.97;32.26;42.17;;
43512;Laerm;34054;52.100;5.116;2024-03-23T01:58:09;36.86;32.27;42.59;;
43512;Laerm;34054;52.100;5.116;2024-03-23T01:58:41;36.96;32.67;42.62;;
43512;Laerm;34054;52.100;5.116;2024-03-23T01:59:13;36.82;32.46;42.17;;
43512;Laerm;34054;52.100;5.116;2024-03-23T01:59:45;36.91;32.05;42.11;;
43512;Laerm;34054;52.100;5.116;2024-03-23T02:00:17;36.83;32.31;41.57;;
43512;Laerm;34054;52.100;5.116;2024-03-23T02:00:49;36.73;31.96;42.92;;
43512;Laerm;34054;52.100;5.116;2024-03-23T02:01:21;36.81;32.62;42.05;;
43512;Laerm;34054;52.100;5.116;2024-03-23T02:01:52;36.79;32.29;42.42;;
43512;Laerm;34054;52.100;5.116;2024-03-23T02:02:24;36.89;32.30;42.31;;
43512;Laerm;34054;52.100;5.116;2024-03-23T02:02:55;36.99;32.14;41.45;;
43512;Laerm;34054;52.100;5.116;2024-03-23T02:03:28;36.84;32.39;42.38;;
43512;Laerm;34054;52.100;5.116;2024-03-23T02:04:00;36.79;32.22;43.34;;
43512;Laerm;34054;52.100;5.116;2024-03-23T02:04:31;36.76;32.49;43.59;;
43512;Laerm;34054;52.100;5.116;2024-03-23T02:05:03;36.46;32.07;41.61;;
43512;Laerm;34054;52.100;5.116;2024-03-23T02:05:35;36.29;31.87;41.92;;
43512;Laerm;34054;52.100;5.116;2024-03-23T02:06:08;36.09;31.80;42.29;;
43512;Laerm;34054;52.100;5.116;2024-03-23T02:06:40;36.23;32.11;41.64;;
43512;Laerm;34054;52.100;5.116;2024-03-23T02:07:11;36.01;31.76;41.77;;
43512;Laerm;34054;52.100;5.116;2024-03-23T02:07:44;36.02;31.61;41.43;;
43512;Laerm;34054;52.100;5.116;2024-03-23T02:08:17;35.97;31.66;42.42;;
43512;Laerm;34054;52.100;5.116;2024-03-23T02:08:49;35.97;31.49;40.77;;
43512;Laerm;34054;52.100;5.116;2024-03-23T02:09:22;35.87;31.75;41.60;;
43512;Laerm;34054;52.100;5.116;2024-03-23T02:09:54;35.63;31.65;42.34;;
43512;Laerm;34054;52.100;5.116;2024-03-23T02:10:26;35.79;31.93;42.61;;
43512;Laerm;34054;52.100;5.116;2024-03-23T02:10:58;35.69;31.64;41.57;;
43512;Laerm;34054;52.100;5.116;2024-03-23T02:11:30;35.85;31.44;41.09;;
43512;Laerm;34054;52.100;5.116;2024-03-23T02:12:02;35.69;31.60;40.33;;
43512;Laerm;34054;52.100;5.116;2024-03-23T02:12:34;35.92;31.80;41.18;;
43512;Laerm;34054;52.100;5.116;2024-03-23T02:13:06;36.00;31.79;42.97;;
43512;Laerm;34054;52.100;5.116;2024-03-23T02:13:38;36.30;32.06;42.32;;
43512;Laerm;34054;52.100;5.116;2024-03-23T02:14:09;36.04;31.75;42.49;;
43512;Laerm;34054;52.100;5.116;2024-03-23T02:14:41;36.09;31.95;42.27;;
43512;Laerm;34054;52.100;5.116;2024-03-23T02:15:12;36.20;31.91;42.42;;
43512;Laerm;34054;52.100;5.116;2024-03-23T02:15:45;36.34;32.10;42.14;;
43512;Laerm;34054;52.100;5.116;2024-03-23T02:16:16;36.44;32.17;41.89;;
43512;Laerm;34054;52.100;5.116;2024-03-23T02:16:48;36.74;31.98;42.39;;
43512;Laerm;34054;52.100;5.116;2024-03-23T02:17:20;36.72;32.34;42.19;;
43512;Laerm;34054;52.100;5.116;2024-03-23T02:17:51;36.66;32.33;42.08;;
43512;Laerm;34054;52.100;5.116;2024-03-23T02:18:23;36.50;32.22;42.31;;
43512;Laerm;34054;52.100;5.116;2024-03-23T02:18:55;36.82;32.18;42.21;;
43512;Laerm;34054;52.100;5.116;2024-03-23T02:19:27;36.91;31.90;43.33;;
43512;Laerm;34054;52.100;5.116;2024-03-23T02:19:59;36.92;32.32;44.23;;
43512;Laerm;34054;52.100;5.116;2024-03-23T02:20:30;36.80;32.38;43.88;;
43512;Laerm;34054;52.100;5.116;2024-03-23T02:21:03;36.86;32.15;42.88;;
43512;Laerm;34054;52.100;5.116;2024-03-23T02:21:34;36.85;32.17;42.37;;
43512;Laerm;34054;52.100;5.116;2024-03-23T02:22:07;36.87;32.59;44.06;;
43512;Laerm;34054;52.100;5.116;2024-03-23T02:22:39;36.78;32.37;43.07;;
43512;Laerm;34054;52.100;5.116;2024-03-23T02:23:15;36.86;32.27;43.35;;
43512;Laerm;34054;52.100;5.116;2024-03-23T02:23:46;36.95;31.91;42.70;;
43512;Laerm;34054;52.100;5.116;2024-03-23T02:24:18;36.98;32.20;44.49;;
43512;Laerm;34054;52.100;5.116;2024-03-23T02:24:50;37.17;32.63;44.14;;
43512;Laerm;34054;52.100;5.116;2024-03-23T02:25:21;36.88;32.27;42.72;;
43512;Laerm;34054;52.100;5.116;2024-03-23T02:25:54;36.99;32.07;42.73;;
43512;Laerm;34054;52.100;5.116;2024-03-23T02:26:25;37.01;32.28;43.98;;
43512;Laerm;34054;52.100;5.116;2024-03-23T02:26:57;37.06;32.02;43.21;;
43512;Laerm;34054;52.100;5.116;2024-03-23T02:27:28;37.16;32.51;42.86;;
43512;Laerm;34054;52.100;5.116;2024-03-23T02:28:00;37.08;32.49;42.55;;
43512;Laerm;34054;52.100;5.116;2024-03-23T02:28:32;37.37;32.09;43.57;;
43512;Laerm;34054;52.100;5.116;2024-03-23T02:29:03;37.43;32.59;44.01;;
43512;Laerm;34054;52.100;5.116;2024-03-23T02:29:35;37.50;32.44;42.18;;
43512;Laerm;34054;52.100;5.116;2024-03-23T02:30:08;37.25;32.43;43.79;;
43512;Laerm;34054;52.100;5.116;2024-03-23T02:30:40;37.31;32.15;44.97;;
43512;Laerm;34054;52.100;5.116;2024-03-23T02:31:13;37.22;32.72;43.97;;
43512;Laerm;34054;52.100;5.116;2024-03-23T02:31:44;37.36;32.09;44.01;;
43512;Laerm;34054;52.100;5.116;2024-03-23T02:32:16;37.30;32.52;42.08;;
43512;Laerm;34054;52.100;5.116;2024-03-23T02:32:47;37.13;32.31;42.28;;
43512;Laerm;34054;52.100;5.116;2024-03-23T02:33:19;37.05;31.85;43.22;;
43512;Laerm;34054;52.100;5.116;2024-03-23T02:33:50;37.12;32.40;42.99;;
43512;Laerm;34054;52.100;5.116;2024-03-23T02:34:23;37.13;32.32;43.24;;
43512;Laerm;34054;52.100;5.116;2024-03-23T02:34:54;37.28;32.64;42.79;;
43512;Laerm;34054;52.100;5.116;2024-03-23T02:35:26;37.21;32.38;43.13;;
43512;Laerm;34054;52.100;5.116;2024-03-23T02:35:57;37.17;32.36;43.26;;
43512;Laerm;34054;52.100;5.116;2024-03-23T02:36:29;37.14;32.65;43.21;;
43512;Laerm;34054;52.100;5.116;2024-03-23T02:37:02;37.40;32.50;43.72;;
43512;Laerm;34054;52.100;5.116;2024-03-23T02:37:34;37.34;32.13;43.22;;
43512;Laerm;34054;52.100;5.116;2024-03-23T02:38:06;37.26;32.47;43.64;;
43512;Laerm;34054;52.100;5.116;2024-03-23T02:38:39;37.35;32.26;43.97;;
43512;Laerm;34054;52.100;5.116;2024-03-23T02:39:11;37.35;32.96;42.64;;
43512;Laerm;34054;52.100;5.116;2024-03-23T02:39:43;37.48;32.31;42.26;;
43512;Laerm;34054;52.100;5.116;2024-03-23T02:40:14;37.40;32.22;42.78;;
43512;Laerm;34054;52.100;5.116;2024-03-23T02:40:46;37.48;32.67;43.92;;
43512;Laerm;34054;52.100;5.116;2024-03-23T02:41:18;37.61;32.91;43.58;;
43512;Laerm;34054;52.100;5.116;2024-03-23T02:41:54;37.37;32.52;42.98;;
43512;Laerm;34054;52.100;5.116;2024-03-23T02:42:25;37.70;32.56;42.44;;
43512;Laerm;34054;52.100;5.116;2024-03-23T02:42:57;37.53;32.78;42.67;;
43512;Laerm;34054;52.100;5.116;2024-03-23T02:43:28;37.55;32.90;43.50;;
43512;Laerm;34054;52.100;5.116;2024-03-23T02:44:00;37.55;32.46;43.61;;
43512;Laerm;34054;52.100;5.116;2024-03-23T02:44:32;37.45;32.52;44.02;;
43512;Laerm;34054;52.100;5.116;2024-03-23T02:45:04;37.44;32.64;43.86;;
43512;Laerm;34054;52.100;5.116;2024-03-23T02:45:37;37.56;32.33;44.84;;
43512;Laerm;34054;52.100;5.116;2024-03-23T02:46:08;37.54;32.47;42.51;;
43512;Laerm;34054;52.100;5.116;2024-03-23T02:46:40;37.64;32.19;43.75;;
43512;Laerm;34054;52.100;5.116;2024-03-23T02:47:11;37.62;32.30;44.98;;
43512;Laerm;34054;52.100;5.116;2024-03-23T02:47:43;37.59;32.80;44.95;;
43512;Laerm;34054;52.100;5.116;2024-03-23T02:48:15;37.80;32.79;43.97;;
43512;Laerm;34054;52.100;5.116;2024-03-23T02:48:48;37.72;32.92;44.25;;
43512;Laerm;34054;52.100;5.116;2024-03-23T02:49:20;37.55;32.54;44.91;;
43512;Laerm;34054;52.100;5.116;2024-03-23T02:49:53;37.59;32.78;44.17;;
43512;Laerm;34054;52.100;5.116;2024-03-23T02:50:26;37.72;32.82;44.48;;
43512;Laerm;34054;52.100;5.116;2024-03-23T02:50:58;37.84;32.73;44.94;;
43512;Laerm;34054;52.100;5.116;2024-03-23T02:51:29;37.88;32.96;44.77;;
43512;Laerm;34054;52.100;5.116;2024-03-23T02:52:01;37.81;32.49;43.94;;
43512;Laerm;34054;52.100;5.116;2024-03-23T02:52:32;37.86;32.68;44.44;;
43512;Laerm;34054;52.100;5.116;2024-03-23T02:53:04;37.78;32.71;44.05;;
43512;Laerm;34054;52.100;5.116;2024-03-23T02:53:36;38.02;33.01;44.98;;
43512;Laerm;34054;52.100;5.116;2024-03-23T02:54:09;37.98;32.63;44.65;;
43512;Laerm;34054;52.100;5.116;2024-03-23T02:54:41;38.21;33.04;45.43;;
43512;Laerm;34054;52.100;5.116;2024-03-23T02:55:16;38.08;33.25;44.55;;
43512;Laerm;34054;52.100;5.116;2024-03-23T02:55:47;38.07;32.88;44.03;;
43512;Laerm;34054;52.100;5.116;2024-03-23T02:56:19;38.11;32.84;44.45;;
43512;Laerm;34054;52.100;5.116;2024-03-23T02:56:52;38.14;32.74;44.68;;
43512;Laerm;34054;52.100;5.116;2024-03-23T02:57:24;38.21;33.14;43.80;;
43512;Laerm;34054;52.100;5.116;2024-03-23T02:57:55;38.21;33.01;44.06;;
43512;Laerm;34054;52.100;5.116;2024-03-23T02:58:27;38.12;32.90;47.96;;
43512;Laerm;34054;52.100;5.116;2024-03-23T02:58:59;38.26;32.85;44.97;;
43512;Laerm;34054;52.100;5.116;2024-03-23T02:59:30;38.32;33.09;44.95;;
43512;Laerm;34054;52.100;5.116;2024-03-23T03:00:02;38.10;32.98;45.65;;
43512;Laerm;34054;52.100;5.116;2024-03-23T03:00:36;38.43;33.12;44.91;;
43512;Laerm;34054;52.100;5.116;2024-03-23T03:01:07;38.37;33.35;45.54;;
43512;Laerm;34054;52.100;5.116;2024-03-23T03:01:39;38.35;32.92;43.91;;
43512;Laerm;34054;52.100;5.116;2024-03-23T03:02:12;38.44;33.45;45.28;;
43512;Laerm;34054;52.100;5.116;2024-03-23T03:02:44;38.51;33.30;45.07;;
43512;Laerm;34054;52.100;5.116;2024-03-23T03:03:15;38.53;33.20;45.15;;
43512;Laerm;34054;52.100;5.116;2024-03-23T03:03:48;38.58;32.95;45.21;;
43512;Laerm;34054;52.100;5.116;2024-03-23T03:04:20;38.57;33.13;44.53;;
43512;Laerm;34054;52.100;5.116;2024-03-23T03:04:51;38.41;33.29;44.77;;
43512;Laerm;34054;52.100;5.116;2024-03-23T03:05:23;38.60;32.98;44.94;;
43512;Laerm;34054;52.100;5.116;2024-03-23T03:05:57;38.56;32.96;45.38;;
43512;Laerm;34054;52.100;5.116;2024-03-23T03:06:30;38.42;33.09;45.77;;
43512;Laerm;34054;52.100;5.116;2024-03-23T03:07:02;38.40;33.18;44.21;;
43512;Laerm;34054;52.100;5.116;2024-03-23T03:07:33;38.49;33.23;44.63;;
43512;Laerm;34054;52.100;5.116;2024-03-23T03:08:06;38.58;32.96;44.39;;
43512;Laerm;34054;52.100;5.116;2024-03-23T03:08:38;38.55;33.12;44.03;;
43512;Laerm;34054;52.100;5.116;2024-03-23T03:09:11;38.36;32.84;45.24;;
43512;Laerm;34054;52.100;5.116;2024-03-23T03:09:42;38.18;32.78;44.54;;
43512;Laerm;34054;52.100;5.116;2024-03-23T03:10:14;38.26;32.97;44.81;;
43512;Laerm;34054;52.100;5.116;2024-03-23T03:10:46;38.37;33.10;44.69;;
43512;Laerm;34054;52.100;5.116;2024-03-23T03:11:17;37.88;32.88;45.12;;
43512;Laerm;34054;52.100;5.116;2024-03-23T03:11:50;37.93;32.83;44.64;;
43512;Laerm;34054;52.100;5.116;2024-03-23T03:12:21;38.03;32.83;44.68;;
43512;Laerm;34054;52.100;5.116;2024-03-23T03:12:53;37.94;32.56;44.57;;
43512;Laerm;34054;52.100;5.116;2024-03-23T03:13:24;38.15;32.87;45.17;;
43512;Laerm;34054;52.100;5.116;2024-03-23T03:13:56;38.27;32.91;44.55;;
43512;Laerm;34054;52.100;5.116;2024-03-23T03:14:27;38.26;32.63;43.90;;
43512;Laerm;34054;52.100;5.116;2024-03-23T03:14:59;38.26;32.72;44.07;;
43512;Laerm;34054;52.100;5.116;2024-03-23T03:15:31;38.21;33.19;45.10;;
43512;Laerm;34054;52.100;5.116;2024-03-23T03:16:08;38.20;32.69;44.88;;
43512;Laerm;34054;52.100;5.116;2024-03-23T03:16:40;38.41;32.97;45.42;;
43512;Laerm;34054;52.100;5.116;2024-03-23T03:17:11;38.56;33.44;45.03;;
43512;Laerm;34054;52.100;5.116;2024-03-23T03:17:43;38.63;33.29;45.69;;
43512;Laerm;34054;52.100;5.116;2024-03-23T03:18:16;38.77;32.71;45.42;;
43512;Laerm;34054;52.100;5.116;2024-03-23T03:18:47;38.71;33.45;46.40;;
43512;Laerm;34054;52.100;5.116;2024-03-23T03:19:20;38.91;33.06;45.14;;
43512;Laerm;34054;52.100;5.116;2024-03-23T03:19:51;39.12;33.21;45.10;;
43512;Laerm;34054;52.100;5.116;2024-03-23T03:20:26;39.08;33.60;45.78;;
43512;Laerm;34054;52.100;5.116;2024-03-23T03:20:58;39.30;33.68;46.61;;
43512;Laerm;34054;52.100;5.116;2024-03-23T03:21:31;39.22;33.54;46.87;;
43512;Laerm;34054;52.100;5.116;2024-03-23T03:22:02;39.41;33.73;44.74;;
43512;Laerm;34054;52.100;5.116;2024-03-23T03:22:35;39.22;33.50;46.49;;
43512;Laerm;34054;52.100;5.116;2024-03-23T03:23:07;39.05;33.63;46.69;;
43512;Laerm;34054;52.100;5.116;2024-03-23T03:23:40;39.32;34.03;46.39;;
43512;Laerm;34054;52.100;5.116;2024-03-23T03:24:13;39.15;33.30;46.32;;
43512;Laerm;34054;52.100;5.116;2024-03-23T03:24:45;39.41;33.44;45.67;;
43512;Laerm;34054;52.100;5.116;2024-03-23T03:25:17;39.87;33.51;46.61;;
43512;Laerm;34054;52.100;5.116;2024-03-23T03:25:48;40.02;34.31;45.88;;
43512;Laerm;34054;52.100;5.116;2024-03-23T03:26:20;40.14;33.86;45.90;;
43512;Laerm;34054;52.100;5.116;2024-03-23T03:26:51;40.18;33.86;46.02;;
43512;Laerm;34054;52.100;5.116;2024-03-23T03:27:24;40.46;33.85;46.06;;
43512;Laerm;34054;52.100;5.116;2024-03-23T03:27:55;40.43;33.89;46.92;;
43512;Laerm;34054;52.100;5.116;2024-03-23T03:28:27;40.49;33.98;46.59;;
43512;Laerm;34054;52.100;5.116;2024-03-23T03:29:02;40.55;33.85;46.84;;
43512;Laerm;34054;52.100;5.116;2024-03-23T03:29:33;40.55;34.20;46.56;;
43512;Laerm;34054;52.100;5.116;2024-03-23T03:30:08;40.26;33.74;46.59;;
43512;Laerm;34054;52.100;5.116;2024-03-23T03:30:40;40.06;33.87;47.34;;
43512;Laerm;34054;52.100;5.116;2024-03-23T03:31:12;39.95;33.93;46.90;;
43512;Laerm;34054;52.100;5.116;2024-03-23T03:31:44;39.48;33.74;47.19;;
43512;Laerm;34054;52.100;5.116;2024-03-23T03:32:15;39.29;33.74;47.89;;
43512;Laerm;34054;52.100;5.116;2024-03-23T03:32:47;39.19;33.69;46.13;;
43512;Laerm;34054;52.100;5.116;2024-03-23T03:33:18;39.16;33.80;46.50;;
43512;Laerm;34054;52.100;5.116;2024-03-23T03:33:50;39.12;33.72;47.64;;
43512;Laerm;34054;52.100;5.116;2024-03-23T03:34:22;38.95;33.67;47.15;;
43512;Laerm;34054;52.100;5.116;2024-03-23T03:34:54;39.06;33.78;46.30;;
43512;Laerm;34054;52.100;5.116;2024-03-23T03:35:26;38.95;33.50;47.08;;
43512;Laerm;34054;52.100;5.116;2024-03-23T03:35:57;38.96;33.47;46.50;;
43512;Laerm;34054;52.100;5.116;2024-03-23T03:36:29;38.94;33.96;46.89;;
43512;Laerm;34054;52.100;5.116;2024-03-23T03:37:00;38.95;33.64;47.71;;
43512;Laerm;34054;52.100;5.116;2024-03-23T03:37:32;38.98;33.51;46.35;;
43512;Laerm;34054;52.100;5.116;2024-03-23T03:38:04;39.09;33.80;47.55;;
43512;Laerm;34054;52.100;5.116;2024-03-23T03:38:37;39.08;33.88;48.17;;
43512;Laerm;34054;52.100;5.116;2024-03-23T03:39:09;39.03;33.89;46.63;;
43512;Laerm;34054;52.100;5.116;2024-03-23T03:39:42;39.11;33.80;47.20;;
43512;Laerm;34054;52.100;5.116;2024-03-23T03:40:14;38.99;33.54;47.34;;
43512;Laerm;34054;52.100;5.116;2024-03-23T03:40:46;39.33;34.19;47.33;;
43512;Laerm;34054;52.100;5.116;2024-03-23T03:41:18;38.96;33.79;47.65;;
43512;Laerm;34054;52.100;5.116;2024-03-23T03:41:50;39.11;34.09;46.58;;
43512;Laerm;34054;52.100;5.116;2024-03-23T03:42:23;39.05;34.00;46.37;;
43512;Laerm;34054;52.100;5.116;2024-03-23T03:42:54;39.09;33.71;47.55;;
43512;Laerm;34054;52.100;5.116;2024-03-23T03:43:26;39.04;33.87;46.27;;
43512;Laerm;34054;52.100;5.116;2024-03-23T03:43:57;39.23;33.78;48.20;;
43512;Laerm;34054;52.100;5.116;2024-03-23T03:44:33;39.21;33.90;48.40;;
43512;Laerm;34054;52.100;5.116;2024-03-23T03:45:06;39.34;33.54;46.77;;
43512;Laerm;34054;52.100;5.116;2024-03-23T03:45:39;39.28;33.57;48.90;;
43512;Laerm;34054;52.100;5.116;2024-03-23T03:46:11;39.61;33.48;48.05;;
43512;Laerm;34054;52.100;5.116;2024-03-23T03:46:43;39.73;33.73;47.90;;
43512;Laerm;34054;52.100;5.116;2024-03-23T03:47:15;39.54;33.73;48.12;;
43512;Laerm;34054;52.100;5.116;2024-03-23T03:47:46;39.80;33.80;47.52;;
43512;Laerm;34054;52.100;5.116;2024-03-23T03:48:18;40.20;33.68;48.03;;
43512;Laerm;34054;52.100;5.116;2024-03-23T03:48:49;40.02;33.91;47.69;;
43512;Laerm;34054;52.100;5.116;2024-03-23T03:49:22;39.75;33.90;47.85;;
43512;Laerm;34054;52.100;5.116;2024-03-23T03:49:53;39.64;33.84;48.19;;
43512;Laerm;34054;52.100;5.116;2024-03-23T03:50:25;39.61;33.90;47.34;;
43512;Laerm;34054;52.100;5.116;2024-03-23T03:50:56;39.73;33.89;47.10;;
43512;Laerm;34054;52.100;5.116;2024-03-23T03:51:28;39.42;33.98;46.44;;
43512;Laerm;34054;52.100;5.116;2024-03-23T03:52:00;39.21;33.97;47.70;;